.
WxDataArchive / Data Records for 2012-06-16
2012-06-15 June 2012 2012-06-17

Data Records for Saturday, 16 June 2012

Time	Temp	Chill	HIndex	Humid	Dewpt	 Wind 	HiWind	WindDir	Rain 	Barom 
-----	----	-----	------	-----	-----	------	------	-------	-----	----- 
00:00	73.7	73.7	73.7	57	57.5	0	1	90	0.00	30.061 
00:05	73.3	73.3	73.3	58	57.6	0	0	---	0.00	30.061 
00:10	73.0	73.0	73.0	58	57.3	0	0	---	0.00	30.061 
00:15	72.7	72.7	72.7	59	57.5	0	0	---	0.00	30.064 
00:20	72.3	72.3	72.3	60	57.6	0	0	---	0.00	30.064 
00:25	71.8	71.8	71.8	61	57.6	0	0	---	0.00	30.064 
00:30	71.6	71.6	71.6	62	57.9	0	1	90	0.00	30.067 
00:35	71.5	71.5	71.5	63	58.2	0	1	90	0.00	30.067 
00:40	71.5	71.5	71.5	63	58.2	0	1	90	0.00	30.067 
00:45	71.3	71.3	71.3	63	58.0	0	1	90	0.00	30.067 
00:50	71.3	71.3	71.3	63	58.0	0	1	90	0.00	30.067 
00:55	71.3	71.3	71.3	64	58.5	0	1	90	0.00	30.067 
01:00	71.1	71.1	71.1	64	58.3	0	0	---	0.00	30.066 
01:05	70.9	70.9	70.9	65	58.5	0	1	90	0.00	30.066 
01:10	70.9	70.9	70.9	65	58.5	0	1	90	0.00	30.066 
01:15	70.8	70.8	70.8	65	58.4	0	0	---	0.00	30.064 
01:20	70.6	70.6	70.6	65	58.2	0	0	---	0.00	30.064 
01:25	70.3	70.3	70.3	66	58.4	0	0	---	0.00	30.064 
01:30	69.9	69.9	69.9	66	58.0	0	0	---	0.00	30.060 
01:35	69.6	69.6	69.6	67	58.1	0	0	---	0.00	30.060 
01:40	69.3	69.3	69.3	68	58.3	0	0	---	0.00	30.060 
01:45	68.9	68.9	68.9	69	58.3	0	0	---	0.00	30.068 
01:50	68.8	68.8	68.8	70	58.6	0	1	90	0.00	30.068 
01:55	68.6	68.6	68.6	71	58.8	0	0	---	0.00	30.068 
02:00	68.4	68.4	68.4	71	58.6	0	0	---	0.00	30.066 
02:05	68.3	68.3	68.3	72	58.9	0	1	90	0.00	30.066 
02:10	68.3	68.3	68.3	72	58.9	0	0	---	0.00	30.066 
02:15	68.1	68.1	68.1	72	58.7	0	0	---	0.00	30.064 
02:20	67.9	67.9	67.9	73	58.9	0	0	---	0.00	30.064 
02:25	67.8	67.8	67.8	73	58.8	0	0	---	0.00	30.064 
02:30	67.6	67.6	67.6	73	58.6	0	0	---	0.00	30.064 
02:35	67.6	67.6	67.6	74	59.0	0	0	---	0.00	30.064 
02:40	67.3	67.3	67.3	74	58.7	0	0	---	0.00	30.064 
02:45	67.1	67.1	67.1	74	58.5	0	0	---	0.00	30.066 
02:50	66.9	66.9	66.9	74	58.3	0	0	---	0.00	30.066 
02:55	66.8	66.8	66.8	75	58.6	0	0	---	0.00	30.066 
03:00	66.6	66.6	66.6	75	58.4	0	0	---	0.00	30.066 
03:05	66.4	66.4	66.4	76	58.6	0	0	---	0.00	30.066 
03:10	66.3	66.3	66.3	76	58.5	0	0	---	0.00	30.066 
03:15	66.1	66.1	66.1	77	58.7	0	0	---	0.00	30.068 
03:20	66.0	66.0	66.0	77	58.6	0	0	---	0.00	30.068 
03:25	65.8	65.8	65.8	78	58.7	0	0	---	0.00	30.068 
03:30	65.6	65.6	65.6	78	58.5	0	0	---	0.00	30.067 
03:35	65.5	65.5	65.5	78	58.5	0	0	---	0.00	30.067 
03:40	65.5	65.5	65.5	78	58.5	0	0	---	0.00	30.067 
03:45	65.3	65.3	65.3	79	58.6	0	0	---	0.00	30.066 
03:50	65.3	65.3	65.3	80	59.0	0	0	---	0.00	30.066 
03:55	65.2	65.2	65.2	80	58.9	0	0	---	0.00	30.066 
04:00	65.2	65.2	65.2	80	58.9	0	0	---	0.00	30.067 
04:05	65.0	65.0	65.0	81	59.0	0	0	---	0.00	30.067 
04:10	65.0	65.0	65.0	81	59.0	0	0	---	0.00	30.067 
04:15	64.8	64.8	64.8	81	58.8	0	0	---	0.00	30.066 
04:20	65.0	65.0	65.0	82	59.4	0	0	---	0.00	30.066 
04:25	65.0	65.0	65.0	82	59.4	0	0	---	0.00	30.066 
04:30	65.0	65.0	65.0	83	59.7	0	0	---	0.00	30.066 
04:35	65.3	65.3	65.3	83	60.0	0	0	---	0.00	30.066 
04:40	65.5	65.5	65.5	83	60.2	0	0	---	0.00	30.066 
04:45	65.6	65.6	65.6	83	60.3	0	0	---	0.00	30.069 
04:50	65.8	65.8	65.8	83	60.5	0	0	---	0.00	30.069 
04:55	66.1	66.1	66.1	82	60.4	0	0	---	0.00	30.069 
05:00	66.3	66.3	66.3	82	60.6	0	0	---	0.00	30.070 
05:05	66.4	66.4	66.4	81	60.4	0	0	---	0.00	30.070 
05:10	66.6	66.6	66.6	81	60.6	0	0	---	0.00	30.070 
05:15	66.8	66.8	66.8	81	60.8	0	0	---	0.00	30.076 
05:20	66.8	66.8	66.8	81	60.8	0	0	---	0.00	30.076 
05:25	66.8	66.8	66.8	81	60.8	0	0	---	0.00	30.076 
05:30	66.8	66.8	66.8	81	60.8	0	0	---	0.00	30.080 
05:35	66.6	66.6	66.6	81	60.6	0	1	90	0.00	30.080 
05:40	66.4	66.4	66.4	82	60.7	0	0	---	0.00	30.080 
05:45	66.3	66.3	66.3	82	60.6	0	0	---	0.00	30.082 
05:50	66.1	66.1	66.1	83	60.8	0	0	---	0.00	30.082 
05:55	66.1	66.1	66.1	83	60.8	0	0	---	0.00	30.082 
06:00	66.0	66.0	66.0	83	60.7	0	0	---	0.00	30.082 
06:05	65.8	65.8	65.8	83	60.5	0	0	---	0.00	30.082 
06:10	65.8	65.8	65.8	84	60.8	0	0	---	0.00	30.082 
06:15	65.8	65.8	65.8	84	60.8	0	1	90	0.00	30.086 
06:20	65.6	65.6	65.6	84	60.6	0	0	---	0.00	30.086 
06:25	65.6	65.6	65.6	84	60.6	0	0	---	0.00	30.086 
06:30	65.6	65.6	65.6	84	60.6	0	0	---	0.00	30.094 
06:35	65.6	65.6	65.6	84	60.6	0	0	---	0.00	30.094 
06:40	65.6	65.6	65.6	84	60.6	0	0	---	0.00	30.094 
06:45	65.8	65.8	65.8	85	61.2	0	0	---	0.00	30.098 
06:50	66.0	66.0	66.0	84	61.0	0	0	---	0.00	30.098 
06:55	66.3	66.3	66.3	84	61.3	0	0	---	0.00	30.098 
07:00	66.6	66.6	66.6	84	61.6	0	0	---	0.00	30.098 
07:05	67.1	67.1	67.1	83	61.8	0	1	90	0.00	30.098 
07:10	67.6	67.6	67.6	81	61.6	0	1	90	0.00	30.098 
07:15	68.1	68.1	68.1	81	62.0	0	2	90	0.00	30.099 
07:20	68.6	68.6	68.6	79	61.8	0	1	90	0.00	30.099 
07:25	69.1	69.1	69.1	78	61.9	0	1	90	0.00	30.099 
07:30	69.8	69.8	69.8	77	62.3	0	1	90	0.00	30.101 
07:35	70.6	70.6	70.6	75	62.3	0	2	90	0.00	30.101 
07:40	71.5	71.5	71.5	73	62.4	0	2	90	0.00	30.101 
07:45	72.3	72.3	72.3	71	62.4	0	2	90	0.00	30.104 
07:50	73.2	73.2	73.2	70	62.8	0	1	90	0.00	30.104 
07:55	73.9	73.9	73.9	69	63.1	1	3	90	0.00	30.104 
08:00	74.4	74.4	74.4	68	63.1	0	2	90	0.00	30.111 
08:05	75.1	75.1	77.0	67	63.4	0	2	90	0.00	30.111 
08:10	75.6	75.6	77.5	66	63.4	0	2	90	0.00	30.111 
08:15	76.1	76.1	78.0	65	63.5	0	3	90	0.00	30.114 
08:20	76.7	76.7	78.5	64	63.6	1	3	90	0.00	30.114 
08:25	77.2	77.2	79.0	64	64.1	0	3	90	0.00	30.114 
08:30	77.7	77.7	79.4	62	63.6	0	1	90	0.00	30.112 
08:35	78.3	78.3	80.0	61	63.7	0	3	90	0.00	30.112 
08:40	78.8	78.8	80.5	60	63.7	1	3	90	0.00	30.112 
08:45	79.0	79.0	80.7	60	63.9	1	3	68	0.00	30.112 
08:50	79.4	79.4	81.0	59	63.8	0	2	68	0.00	30.112 
08:55	79.6	79.6	81.3	59	64.0	0	2	68	0.00	30.112 
09:00	80.1	80.1	81.7	58	64.0	0	1	68	0.00	30.111 
09:05	80.5	80.5	82.1	57	63.8	0	2	68	0.00	30.111 
09:10	80.9	80.9	82.5	57	64.2	1	3	68	0.00	30.111 
09:15	81.1	81.1	82.8	57	64.4	1	4	68	0.00	30.113 
09:20	81.1	81.1	82.8	57	64.4	1	3	68	0.00	30.113 
09:25	81.4	81.4	83.1	57	64.7	1	3	68	0.00	30.113 
09:30	81.8	81.8	83.3	55	64.0	1	3	68	0.00	30.107 
09:35	82.4	82.4	83.9	54	64.1	0	2	90	0.00	30.107 
09:40	83.0	83.0	84.7	54	64.6	1	3	68	0.00	30.107 
09:45	83.6	83.6	85.0	52	64.1	1	3	90	0.00	30.098 
09:50	84.1	84.1	85.7	52	64.5	0	3	90	0.00	30.098 
09:55	83.6	83.6	85.2	53	64.6	1	3	90	0.00	30.098 
10:00	84.1	84.1	85.5	51	64.0	1	3	22	0.00	30.092 
10:05	84.3	84.3	85.7	51	64.2	1	4	112	0.00	30.092 
10:10	84.5	84.5	86.0	51	64.4	1	4	112	0.00	30.092 
10:15	84.9	84.9	86.1	49	63.6	1	4	112	0.00	30.087 
10:20	84.7	84.7	86.0	50	64.0	1	3	135	0.00	30.087 
10:25	85.3	85.3	86.9	50	64.5	1	4	90	0.00	30.087 
10:30	85.9	85.9	86.9	47	63.3	1	4	292	0.00	30.081 
10:35	86.3	86.3	87.8	48	64.3	1	4	90	0.00	30.081 
10:40	86.1	86.1	87.2	47	63.5	0	2	68	0.00	30.081 
10:45	85.3	85.3	86.4	48	63.4	1	3	45	0.00	30.082 
10:50	85.3	85.3	86.6	49	63.9	1	4	45	0.00	30.082 
10:55	85.5	85.5	86.6	48	63.5	1	2	45	0.00	30.082 
11:00	85.9	85.9	87.2	48	63.9	1	3	248	0.00	30.079 
11:05	86.3	86.3	87.8	48	64.3	2	4	90	0.00	30.079 
11:10	86.7	86.7	88.1	47	64.0	0	2	90	0.00	30.079 
11:15	87.2	87.2	88.2	45	63.2	1	5	90	0.00	30.078 
11:20	87.0	87.0	87.9	45	63.1	0	2	90	0.00	30.078 
11:25	87.0	87.0	88.2	46	63.7	1	3	112	0.00	30.078 
11:30	86.5	86.5	87.8	47	63.8	1	3	112	0.00	30.074 
11:35	86.3	86.3	87.2	46	63.0	0	3	315	0.00	30.074 
11:40	86.1	86.1	87.0	46	62.9	0	3	315	0.00	30.074 
11:45	86.3	86.3	87.5	47	63.7	1	3	315	0.00	30.075 
11:50	86.5	86.5	87.5	46	63.2	1	3	90	0.00	30.075 
11:55	86.5	86.5	87.5	46	63.2	1	2	90	0.00	30.075 
12:00	87.0	87.0	87.9	45	63.1	0	2	90	0.00	30.070 
12:05	87.6	87.6	88.5	44	63.0	1	4	90	0.00	30.070 
12:10	88.4	88.4	89.3	43	63.0	1	4	135	0.00	30.070 
12:15	88.4	88.4	89.3	43	63.0	1	6	292	0.00	30.070 
12:20	88.0	88.0	89.0	44	63.3	1	5	225	0.00	30.070 
12:25	87.8	87.8	87.9	41	61.1	1	5	112	0.00	30.070 
12:30	88.0	88.0	88.2	41	61.3	1	3	68	0.00	30.066 
12:35	88.2	88.2	88.4	41	61.5	1	4	90	0.00	30.066 
12:40	88.0	88.0	87.4	38	59.2	1	3	112	0.00	30.066 
12:45	88.2	88.2	87.9	39	60.1	1	4	90	0.00	30.065 
12:50	88.4	88.4	87.4	36	58.0	1	4	292	0.00	30.065 
12:55	88.6	88.6	87.6	36	58.2	1	3	90	0.00	30.065 
13:00	88.8	88.8	88.4	38	59.9	1	2	90	0.00	30.060 
13:05	88.8	88.8	88.7	39	60.6	1	3	90	0.00	30.060 
13:10	89.0	89.0	88.7	38	60.1	1	3	90	0.00	30.060 
13:15	89.3	89.3	89.1	38	60.3	2	3	112	0.00	30.056 
13:20	89.7	89.7	89.9	39	61.4	0	2	112	0.00	30.056 
13:25	90.3	90.3	89.8	36	59.7	1	4	270	0.00	30.056 
13:30	90.7	90.7	90.1	35	59.2	2	5	68	0.00	30.053 
13:35	91.4	91.4	91.4	36	60.6	2	5	90	0.00	30.053 
13:40	91.6	91.6	91.3	35	60.0	2	5	90	0.00	30.053 
13:45	91.6	91.6	91.0	34	59.2	1	4	112	0.00	30.049 
13:50	91.4	91.4	91.0	35	59.8	2	4	112	0.00	30.049 
13:55	91.0	91.0	90.8	36	60.3	2	5	90	0.00	30.049 
14:00	90.7	90.7	90.1	35	59.2	1	5	158	0.00	30.048 
14:05	91.0	91.0	90.5	35	59.5	1	4	90	0.00	30.048 
14:10	91.0	91.0	90.2	34	58.7	1	4	90	0.00	30.048 
14:15	90.7	90.7	89.5	33	57.6	1	4	270	0.00	30.041 
14:20	90.7	90.7	90.1	35	59.2	1	4	270	0.00	30.041 
14:25	90.7	90.7	89.8	34	58.4	1	3	270	0.00	30.041 
14:30	90.7	90.7	89.8	34	58.4	1	3	270	0.00	30.038 
14:35	91.2	91.2	90.2	33	58.0	1	4	270	0.00	30.038 
14:40	91.2	91.2	90.2	33	58.0	2	5	112	0.00	30.038 
14:45	91.2	91.2	90.2	33	58.0	1	5	112	0.00	30.035 
14:50	91.2	91.2	90.2	33	58.0	1	4	135	0.00	30.035 
14:55	91.4	91.4	90.1	32	57.3	2	6	90	0.00	30.035 
15:00	91.0	91.0	89.6	32	57.0	1	9	112	0.00	30.030 
15:05	91.0	91.0	90.5	35	59.5	2	4	68	0.00	30.030 
15:10	91.4	91.4	90.1	32	57.3	1	3	68	0.00	30.030 
15:15	92.1	92.1	90.8	31	57.1	2	5	112	0.00	30.022 
15:20	92.1	92.1	90.8	31	57.1	1	4	112	0.00	30.022 
15:25	92.5	92.5	91.3	31	57.4	1	3	68	0.00	30.022 
15:30	92.7	92.7	91.6	31	57.6	2	4	90	0.00	30.006 
15:35	92.9	92.9	91.5	30	56.8	1	4	90	0.00	30.006 
15:40	93.2	93.2	92.2	31	58.0	1	4	90	0.00	30.006 
15:45	93.4	93.4	92.2	30	57.3	1	4	292	0.00	29.998 
15:50	93.6	93.6	92.5	30	57.4	1	3	270	0.00	29.998 
15:55	93.8	93.8	92.4	29	56.7	1	4	45	0.00	29.998 
16:00	93.6	93.6	92.5	30	57.4	1	4	90	0.00	29.988 
16:05	92.7	92.7	91.6	31	57.6	1	3	90	0.00	29.988 
16:10	92.3	92.3	91.0	31	57.2	2	6	90	0.00	29.988 
16:15	92.3	92.3	91.0	31	57.2	1	6	292	0.00	29.977 
16:20	92.5	92.5	91.3	31	57.4	2	4	292	0.00	29.977 
16:25	93.2	93.2	91.6	29	56.2	2	4	112	0.00	29.977 
16:30	93.8	93.8	92.4	29	56.7	1	3	90	0.00	29.972 
16:35	93.8	93.8	92.4	29	56.7	2	5	90	0.00	29.972 
16:40	94.0	94.0	93.0	30	57.8	2	5	90	0.00	29.972 
16:45	94.3	94.3	93.8	31	59.0	1	5	270	0.00	29.970 
16:50	94.5	94.5	93.0	28	56.3	1	5	270	0.00	29.970 
16:55	93.8	93.8	92.1	28	55.7	2	5	90	0.00	29.970 
17:00	92.7	92.7	91.3	30	56.7	1	4	270	0.00	29.970 
17:05	92.1	92.1	90.8	31	57.1	2	5	112	0.00	29.970 
17:10	91.8	91.8	90.4	31	56.8	1	3	270	0.00	29.970 
17:15	91.8	91.8	90.7	32	57.7	1	3	270	0.00	29.968 
17:20	92.1	92.1	90.8	31	57.1	1	3	270	0.00	29.968 
17:25	92.3	92.3	91.0	31	57.2	1	3	315	0.00	29.968 
17:30	92.1	92.1	91.1	32	58.0	0	2	315	0.00	29.967 
17:35	91.8	91.8	91.0	33	58.5	1	3	315	0.00	29.967 
17:40	91.8	91.8	91.0	33	58.5	1	3	0	0.00	29.967 
17:45	91.2	91.2	89.9	32	57.2	1	5	292	0.00	29.971 
17:50	90.7	90.7	89.8	34	58.4	1	5	270	0.00	29.971 
17:55	90.5	90.5	89.5	34	58.3	1	6	90	0.00	29.971 
18:00	90.1	90.1	89.0	34	57.9	1	2	90	0.00	29.965 
18:05	89.9	89.9	88.8	34	57.7	1	3	90	0.00	29.965 
18:10	89.5	89.5	88.5	35	58.2	1	4	270	0.00	29.965 
18:15	89.3	89.3	88.3	35	58.0	1	3	292	0.00	29.959 
18:20	89.3	89.3	88.5	36	58.8	1	3	292	0.00	29.959 
18:25	89.0	89.0	88.1	36	58.5	1	3	292	0.00	29.959 
18:30	89.0	89.0	88.1	36	58.5	1	3	315	0.00	29.950 
18:35	89.0	89.0	88.1	36	58.5	1	5	270	0.00	29.950 
18:40	89.3	89.3	88.3	35	58.0	1	3	315	0.00	29.950 
18:45	89.3	89.3	88.3	35	58.0	2	6	248	0.00	29.931 
18:50	89.5	89.5	88.5	35	58.2	1	4	270	0.00	29.931 
18:55	89.5	89.5	88.3	34	57.4	1	5	270	0.00	29.931 
19:00	89.7	89.7	88.8	35	58.4	1	3	225	0.00	29.927 
19:05	89.5	89.5	88.5	35	58.2	1	4	270	0.00	29.927 
19:10	89.5	89.5	88.8	36	59.0	1	3	270	0.00	29.927 
19:15	89.0	89.0	88.1	36	58.5	1	5	270	0.00	29.924 
19:20	88.6	88.6	87.6	36	58.2	0	2	270	0.00	29.924 
19:25	88.4	88.4	87.6	37	58.8	0	2	270	0.00	29.924 
19:30	88.0	88.0	86.9	36	57.7	0	2	270	0.00	29.921 
19:35	87.8	87.8	86.7	36	57.5	0	2	270	0.00	29.921 
19:40	87.6	87.6	86.7	37	58.1	0	2	270	0.00	29.921 
19:45	87.4	87.4	86.9	39	59.4	0	1	270	0.00	29.923 
19:50	87.2	87.2	86.6	39	59.2	1	3	270	0.00	29.923 
19:55	86.3	86.3	87.8	48	64.3	2	4	112	0.00	29.923 
20:00	85.3	85.3	86.1	47	62.8	2	7	90	0.00	29.928 
20:05	84.7	84.7	85.8	49	63.4	2	6	135	0.00	29.928 
20:10	84.3	84.3	85.5	50	63.6	2	5	68	0.00	29.928 
20:15	83.8	83.8	85.1	51	63.7	2	5	90	0.00	29.931 
20:20	83.4	83.4	85.0	53	64.4	1	4	112	0.00	29.931 
20:25	83.2	83.2	84.7	53	64.3	1	6	90	0.00	29.931 
20:30	83.0	83.0	84.7	54	64.6	0	3	112	0.00	29.931 
20:35	82.8	82.8	84.4	54	64.4	2	4	90	0.00	29.931 
20:40	82.8	82.8	84.4	54	64.4	1	2	90	0.00	29.931 
20:45	82.6	82.6	84.1	54	64.2	1	3	90	0.00	29.922 
20:50	82.4	82.4	83.9	54	64.1	1	3	68	0.00	29.922 
20:55	82.4	82.4	83.7	53	63.5	1	5	90	0.00	29.922 
21:00	82.4	82.4	83.7	53	63.5	0	2	90	0.00	29.920 
21:05	82.4	82.4	83.7	53	63.5	1	4	315	0.00	29.920 
21:10	82.4	82.4	83.5	52	63.0	1	4	292	0.00	29.920 
21:15	82.4	82.4	83.5	52	63.0	1	3	225	0.00	29.911 
21:20	82.4	82.4	83.5	52	63.0	1	2	292	0.00	29.911 
21:25	82.2	82.2	83.3	52	62.8	1	3	0	0.00	29.911 
21:30	82.0	82.0	83.1	52	62.6	1	2	292	0.00	29.908 
21:35	81.8	81.8	82.8	52	62.4	0	3	292	0.00	29.908 
21:40	81.6	81.6	82.6	52	62.2	1	4	292	0.00	29.908 
21:45	81.6	81.6	82.5	51	61.7	1	3	270	0.00	29.913 
21:50	81.6	81.6	82.5	51	61.7	1	2	315	0.00	29.913 
21:55	81.6	81.6	82.5	51	61.7	0	4	248	0.00	29.913 
22:00	81.4	81.4	82.3	51	61.5	1	3	248	0.00	29.920 
22:05	81.2	81.2	82.1	51	61.3	0	3	90	0.00	29.920 
22:10	81.1	81.1	82.0	51	61.2	0	2	90	0.00	29.920 
22:15	80.9	80.9	81.8	51	61.0	0	2	68	0.00	29.924 
22:20	80.7	80.7	81.7	52	61.4	0	1	68	0.00	29.924 
22:25	80.3	80.3	81.3	52	61.0	0	1	68	0.00	29.924 
22:30	80.1	80.1	81.2	53	61.4	0	0	---	0.00	29.922 
22:35	79.8	79.8	81.0	54	61.7	0	1	68	0.00	29.922 
22:40	79.6	79.6	80.9	55	62.0	0	3	270	0.00	29.922 
22:45	79.6	79.6	81.1	57	63.0	0	2	270	0.00	29.922 
22:50	79.4	79.4	80.9	57	62.8	0	1	270	0.00	29.922 
22:55	79.4	79.4	80.9	58	63.3	0	1	270	0.00	29.922 
23:00	79.2	79.2	80.8	59	63.6	0	0	---	0.00	29.918 
23:05	79.0	79.0	80.7	60	63.9	0	1	270	0.00	29.918 
23:10	79.0	79.0	80.8	61	64.4	0	2	270	0.00	29.918 
23:15	79.0	79.0	80.8	62	64.8	0	2	270	0.00	29.918 
23:20	79.0	79.0	80.8	62	64.8	0	1	270	0.00	29.918 
23:25	78.8	78.8	80.6	62	64.7	0	1	270	0.00	29.918 
23:30	78.8	78.8	80.6	62	64.7	0	1	270	0.00	29.916 
23:35	78.6	78.6	80.4	63	64.9	0	1	270	0.00	29.916 
23:40	78.6	78.6	80.4	63	64.9	0	1	270	0.00	29.916 
23:45	78.5	78.5	80.4	64	65.3	0	1	270	0.00	29.914 
23:50	78.3	78.3	80.2	64	65.1	0	1	270	0.00	29.914 
23:55	78.3	78.3	80.2	64	65.1	0	1	270	0.00	29.914 

CoCoRaHS
IN-AL-39
A2 Web Hosting
Creative Commons License
GoDaddy
search engine by freefind advanced

loaded 2018-11-17 06:17:10 • last modified 2010-11-18 10:43:29
Privacy PolicyDisclaimer
• wx.awcolley.com is powered by PmWiki v.2002016 •
• all content (unless otherwise noted) © 2018 A W Colley